createdAt,value
2022-09-07T00:01:41.990Z,3.58
2022-09-07T00:06:43.539Z,3.67
2022-09-07T00:11:45.206Z,7.38
2022-09-07T00:16:46.722Z,4.93
2022-09-07T00:21:48.320Z,2.55
2022-09-07T00:26:49.910Z,3.72
2022-09-07T00:31:51.504Z,2.80
2022-09-07T00:36:53.062Z,4.03
2022-09-07T00:41:54.570Z,4.18
2022-09-07T00:46:56.350Z,8.38
2022-09-07T00:52:03.142Z,6.93
2022-09-07T00:57:05.494Z,5.25
2022-09-07T01:02:08.148Z,4.63
2022-09-07T01:07:09.906Z,4.28
2022-09-07T01:12:11.448Z,5.00
2022-09-07T01:17:41.969Z,4.82
2022-09-07T01:23:04.388Z,3.35
2022-09-07T01:28:22.716Z,4.70
2022-09-07T01:33:32.513Z,6.05
2022-09-07T01:38:36.784Z,8.20
2022-09-07T01:44:03.383Z,8.65
2022-09-07T01:49:17.574Z,6.25
2022-09-07T01:54:27.624Z,4.90
2022-09-07T01:59:45.935Z,5.13
2022-09-07T02:04:55.480Z,4.50
2022-09-07T02:10:10.692Z,3.38
2022-09-07T02:15:20.966Z,2.85
2022-09-07T02:20:31.451Z,6.53
2022-09-07T02:25:45.730Z,5.47
2022-09-07T02:30:47.479Z,9.15
2022-09-07T02:35:49.117Z,6.20
2022-09-07T02:40:55.174Z,8.63
2022-09-07T02:46:15.328Z,5.43
2022-09-07T02:51:22.692Z,4.77
2022-09-07T02:56:46.065Z,4.43
2022-09-07T03:01:59.619Z,7.97
2022-09-07T03:07:35.779Z,8.45
2022-09-07T03:12:46.063Z,7.82
2022-09-07T03:17:48.354Z,9.57
2022-09-07T03:22:51.665Z,11.82
2022-09-07T03:27:53.278Z,10.00
2022-09-07T03:32:54.761Z,11.27
2022-09-07T03:37:56.259Z,11.55
2022-09-07T03:42:57.686Z,12.60
2022-09-07T03:47:59.101Z,10.40
2022-09-07T03:53:00.589Z,15.05
2022-09-07T03:58:02.014Z,15.45
2022-09-07T04:03:03.520Z,16.35
2022-09-07T04:08:05.036Z,17.58
2022-09-07T04:13:07.296Z,16.42
2022-09-07T04:18:08.853Z,18.45
2022-09-07T04:23:10.402Z,21.48
2022-09-07T04:28:11.859Z,15.65
2022-09-07T04:33:14.486Z,20.85
2022-09-07T04:38:16.582Z,18.23
2022-09-07T04:43:18.095Z,18.67
2022-09-07T04:48:19.535Z,20.02
2022-09-07T04:53:20.965Z,22.10
2022-09-07T04:58:22.438Z,25.55
2022-09-07T05:03:23.897Z,24.58
2022-09-07T05:08:25.335Z,26.05
2022-09-07T05:13:28.972Z,23.80
2022-09-07T05:18:30.480Z,23.13
2022-09-07T05:23:31.929Z,24.52
2022-09-07T05:28:34.835Z,24.67
2022-09-07T05:38:59.193Z,21.15
2022-09-07T05:49:22.172Z,22.45
2022-09-07T05:54:23.722Z,21.98
2022-09-07T05:59:25.190Z,21.58
2022-09-07T06:04:26.615Z,20.92
2022-09-07T06:09:30.515Z,22.55
2022-09-07T06:14:33.558Z,22.25
2022-09-07T06:19:35.007Z,18.15
2022-09-07T06:24:36.432Z,22.38
2022-09-07T06:29:37.883Z,20.08
2022-09-07T06:34:39.316Z,18.13
2022-09-07T06:39:40.875Z,22.60
2022-09-07T06:44:42.396Z,20.95
2022-09-07T06:49:43.828Z,19.58
2022-09-07T06:55:00.990Z,21.45
2022-09-07T07:00:03.378Z,21.80
2022-09-07T07:05:05.151Z,16.88
2022-09-07T07:10:06.993Z,17.00
2022-09-07T07:15:09.014Z,22.08
2022-09-07T07:20:10.662Z,15.52
2022-09-07T07:25:12.115Z,13.15
2022-09-07T07:30:17.729Z,14.13
2022-09-07T07:35:19.210Z,14.65
2022-09-07T07:40:23.551Z,13.05
2022-09-07T07:50:58.574Z,11.77
2022-09-07T07:56:00.868Z,11.90
2022-09-07T08:01:05.297Z,9.93
2022-09-07T08:06:09.041Z,11.20
2022-09-07T08:11:13.064Z,7.35
2022-09-07T08:16:15.097Z,8.88
2022-09-07T08:21:16.881Z,9.45
2022-09-07T08:26:18.233Z,6.90
2022-09-07T08:31:19.630Z,8.15
2022-09-07T08:36:21.529Z,17.98
2022-09-07T08:41:31.942Z,11.60
2022-09-07T08:46:38.613Z,8.73
2022-09-07T08:51:47.461Z,9.23
2022-09-07T09:06:10.831Z,12.23
2022-09-07T09:07:52.609Z,9.48
2022-09-07T09:13:09.454Z,10.77
2022-09-07T09:18:35.089Z,10.10
2022-09-07T09:23:44.608Z,9.45
2022-09-07T09:28:45.969Z,10.95
2022-09-07T09:34:05.706Z,9.95
2022-09-07T09:39:37.106Z,9.52
2022-09-07T09:44:39.463Z,9.25
2022-09-07T09:49:40.959Z,9.88
2022-09-07T09:54:44.657Z,9.82
2022-09-07T10:00:05.547Z,13.52
2022-09-07T10:05:30.243Z,9.13
2022-09-07T10:10:32.153Z,8.60
2022-09-07T10:15:40.522Z,10.98
2022-09-07T10:20:42.552Z,14.07
2022-09-07T10:25:47.468Z,11.60
2022-09-07T10:31:00.975Z,13.98
2022-09-07T10:36:23.658Z,11.50
2022-09-07T10:41:46.864Z,12.30
2022-09-07T10:47:09.304Z,14.23
2022-09-07T10:52:38.722Z,12.50
2022-09-07T10:57:58.031Z,11.80
2022-09-07T11:03:40.891Z,14.35
2022-09-07T11:09:21.068Z,10.57
2022-09-07T11:14:25.411Z,11.17
2022-09-07T11:19:37.882Z,9.65
2022-09-07T11:30:27.266Z,10.50
2022-09-07T11:35:44.720Z,9.07
2022-09-07T11:40:58.515Z,13.40
2022-09-07T11:46:24.872Z,11.18
2022-09-07T11:51:53.638Z,14.30
2022-09-07T11:57:36.959Z,16.42
2022-09-07T12:03:02.780Z,13.52
2022-09-07T12:08:17.778Z,10.85
2022-09-07T12:13:42.395Z,10.65
2022-09-07T12:18:43.695Z,8.10
2022-09-07T12:23:46.359Z,8.73
2022-09-07T12:28:50.721Z,8.88
2022-09-07T12:34:38.263Z,10.90
2022-09-07T12:39:43.802Z,13.40
2022-09-07T12:44:45.685Z,7.63
2022-09-07T12:50:10.126Z,10.18
2022-09-07T12:55:28.121Z,7.28
2022-09-07T13:00:50.877Z,9.75
2022-09-07T13:06:07.324Z,11.20
2022-09-07T13:11:20.767Z,11.98
2022-09-07T13:22:30.164Z,8.10
2022-09-07T13:27:43.518Z,6.28
2022-09-07T13:38:13.842Z,7.22
2022-09-07T13:43:19.634Z,6.07
2022-09-07T13:48:36.001Z,4.28
2022-09-07T13:53:55.938Z,4.70
2022-09-07T13:58:57.433Z,5.20
2022-09-07T14:04:06.508Z,6.10
2022-09-07T14:09:22.199Z,6.05
2022-09-07T14:14:26.718Z,6.65
2022-09-07T14:19:39.620Z,4.03
2022-09-07T14:24:54.708Z,4.53
2022-09-07T14:29:56.086Z,3.60
2022-09-07T14:34:58.157Z,3.50
2022-09-07T14:40:00.723Z,4.65
2022-09-07T14:45:20.904Z,3.38
2022-09-07T14:50:34.731Z,2.55
2022-09-07T14:55:42.468Z,7.72
2022-09-07T15:00:46.290Z,2.83
2022-09-07T15:05:48.796Z,4.50
2022-09-07T15:16:34.999Z,4.32
2022-09-07T15:21:39.753Z,3.13
2022-09-07T15:32:09.322Z,2.42
2022-09-07T15:47:53.809Z,3.40
2022-09-07T15:52:55.393Z,2.25
2022-09-07T15:58:10.568Z,3.25
2022-09-07T16:03:12.512Z,3.47
2022-09-07T16:13:35.925Z,4.38
2022-09-07T16:18:39.113Z,2.13
2022-09-07T16:23:44.492Z,1.75
2022-09-07T16:28:48.634Z,2.15
2022-09-07T16:33:50.459Z,5.45
2022-09-07T16:39:01.630Z,4.72
2022-09-07T16:44:03.241Z,4.55
2022-09-07T16:49:06.950Z,6.82
2022-09-07T16:54:11.667Z,3.97
2022-09-07T16:59:20.037Z,4.43
2022-09-07T17:04:21.551Z,2.75
2022-09-07T17:09:26.644Z,4.32
2022-09-07T17:14:28.661Z,7.20
2022-09-07T17:19:30.462Z,2.85
2022-09-07T17:24:32.554Z,3.10
2022-09-07T17:29:37.029Z,4.50
2022-09-07T17:34:38.853Z,4.18
2022-09-07T17:39:40.256Z,4.50
2022-09-07T17:44:41.835Z,7.85
2022-09-07T17:49:43.262Z,6.80
2022-09-07T17:54:44.643Z,4.88
2022-09-07T18:05:07.753Z,8.15
2022-09-07T18:10:09.467Z,4.25
2022-09-07T18:15:11.054Z,3.97
2022-09-07T18:20:12.443Z,4.78
2022-09-07T18:25:13.878Z,4.38
2022-09-07T18:30:15.789Z,4.38
2022-09-07T18:35:17.219Z,6.68
2022-09-07T18:40:21.568Z,6.47
2022-09-07T18:45:30.449Z,6.25
2022-09-07T18:50:32.687Z,4.97
2022-09-07T18:55:34.169Z,8.45
2022-09-07T19:00:35.705Z,6.85
2022-09-07T19:05:53.238Z,9.10
2022-09-07T19:10:54.832Z,6.20
2022-09-07T19:16:06.380Z,4.10
2022-09-07T19:21:13.504Z,8.57
2022-09-07T19:26:17.618Z,7.32
2022-09-07T19:31:19.465Z,6.32
2022-09-07T19:36:21.121Z,8.25
2022-09-07T19:41:22.923Z,8.13
2022-09-07T19:46:25.118Z,6.93
2022-09-07T19:51:26.580Z,6.90
2022-09-07T19:56:28.095Z,8.80
2022-09-07T20:01:29.707Z,5.53
2022-09-07T20:06:32.755Z,8.20
2022-09-07T20:11:35.368Z,4.53
2022-09-07T20:16:38.445Z,7.32
2022-09-07T20:21:40.007Z,6.00
2022-09-07T20:26:41.621Z,6.70
2022-09-07T20:31:43.947Z,5.80
2022-09-07T20:36:45.336Z,7.00
2022-09-07T20:41:47.273Z,5.53
2022-09-07T20:46:48.799Z,6.90
2022-09-07T20:51:50.599Z,7.13
2022-09-07T20:56:51.931Z,6.78
2022-09-07T21:01:53.326Z,5.90
2022-09-07T21:06:54.703Z,11.02
2022-09-07T21:11:57.225Z,5.55
2022-09-07T21:16:58.687Z,4.60
2022-09-07T21:22:00.039Z,4.70
2022-09-07T21:27:01.441Z,4.82
2022-09-07T21:32:03.186Z,3.35
2022-09-07T21:37:04.542Z,6.68
2022-09-07T21:42:05.995Z,7.45
2022-09-07T21:47:07.441Z,6.57
2022-09-07T21:52:08.836Z,4.82
2022-09-07T21:57:10.667Z,4.47
2022-09-07T22:02:12.149Z,7.35
2022-09-07T22:07:13.561Z,5.90
2022-09-07T22:12:14.925Z,6.18
2022-09-07T22:17:16.977Z,4.47
2022-09-07T22:22:18.405Z,6.03
2022-09-07T22:27:19.776Z,6.55
2022-09-07T22:32:21.151Z,7.65
2022-09-07T22:37:22.631Z,8.48
2022-09-07T22:42:24.509Z,7.00
2022-09-07T22:47:25.995Z,5.57
2022-09-07T22:52:27.359Z,7.72
2022-09-07T22:57:28.726Z,5.35
2022-09-07T23:02:30.166Z,6.50
2022-09-07T23:07:31.494Z,7.25
2022-09-07T23:12:33.026Z,5.78
2022-09-07T23:17:34.367Z,6.57
2022-09-07T23:22:35.943Z,6.15
2022-09-07T23:27:37.321Z,7.85
2022-09-07T23:32:38.687Z,6.70
2022-09-07T23:37:40.045Z,8.45
2022-09-07T23:42:41.385Z,8.68
2022-09-07T23:47:42.727Z,9.57
2022-09-07T23:52:44.195Z,9.57
2022-09-07T23:57:45.519Z,9.57
